createdAt,value
2022-11-08T00:03:10.766Z,7.09
2022-11-08T00:08:42.407Z,7.05
2022-11-08T00:14:14.203Z,7.03
2022-11-08T00:19:45.987Z,6.99
2022-11-08T00:25:17.729Z,6.94
2022-11-08T00:36:21.305Z,6.87
2022-11-08T00:38:32.994Z,6.34
2022-11-08T00:44:04.964Z,6.51
2022-11-08T00:49:36.585Z,6.55
2022-11-08T00:55:08.275Z,6.52
2022-11-08T01:00:40.108Z,6.47
2022-11-08T01:06:11.861Z,6.43
2022-11-08T01:11:44.195Z,6.37
2022-11-08T01:17:15.941Z,6.30
2022-11-08T01:22:47.658Z,6.24
2022-11-08T01:28:19.794Z,6.20
2022-11-08T01:33:51.905Z,6.16
2022-11-08T01:39:23.098Z,6.12
2022-11-08T01:44:54.767Z,6.07
2022-11-08T01:50:26.726Z,6.00
2022-11-08T01:55:58.510Z,5.91
2022-11-08T02:01:30.754Z,5.84
2022-11-08T02:07:02.571Z,5.76
2022-11-08T02:12:34.698Z,5.67
2022-11-08T02:18:06.558Z,5.61
2022-11-08T02:23:37.908Z,5.56
2022-11-08T02:29:09.275Z,5.51
2022-11-08T02:34:41.314Z,5.46
2022-11-08T02:45:47.324Z,5.33
2022-11-08T02:51:19.288Z,5.25
2022-11-08T02:56:50.829Z,5.17
2022-11-08T03:02:22.881Z,5.13
2022-11-08T03:07:56.237Z,5.08
2022-11-08T03:13:28.219Z,5.00
2022-11-08T03:18:59.856Z,4.97
2022-11-08T03:24:31.760Z,4.92
2022-11-08T03:30:03.499Z,4.88
2022-11-08T03:35:35.455Z,4.83
2022-11-08T03:41:06.986Z,4.76
2022-11-08T03:46:38.758Z,4.73
2022-11-08T03:52:10.464Z,4.68
2022-11-08T03:57:42.290Z,4.60
2022-11-08T04:08:43.465Z,4.53
2022-11-08T04:19:46.994Z,4.51
2022-11-08T04:25:18.652Z,4.49
2022-11-08T04:30:50.898Z,4.47
2022-11-08T04:36:22.694Z,4.45
2022-11-08T04:41:59.187Z,4.43
2022-11-08T04:47:26.179Z,4.42
2022-11-08T04:52:57.914Z,4.39
2022-11-08T04:58:29.792Z,4.37
2022-11-08T05:04:01.664Z,4.35
2022-11-08T05:09:33.340Z,4.33
2022-11-08T05:15:05.302Z,4.29
2022-11-08T05:20:37.021Z,4.25
2022-11-08T05:26:08.922Z,4.20
2022-11-08T05:31:40.651Z,4.14
2022-11-08T05:37:12.317Z,4.11
2022-11-08T05:42:44.306Z,4.07
2022-11-08T05:48:16.169Z,4.01
2022-11-08T05:59:17.126Z,3.92
2022-11-08T06:04:48.913Z,3.90
2022-11-08T06:10:20.848Z,3.87
2022-11-08T06:15:52.586Z,3.84
2022-11-08T06:21:26.438Z,3.82
2022-11-08T06:26:58.349Z,3.83
2022-11-08T06:32:29.998Z,3.87
2022-11-08T06:38:04.584Z,3.96
2022-11-08T06:43:33.847Z,4.20
2022-11-08T06:49:05.932Z,4.57
2022-11-08T06:54:37.827Z,5.07
2022-11-08T07:00:09.878Z,5.63
2022-11-08T07:05:41.453Z,6.23
2022-11-08T07:11:19.527Z,6.78
2022-11-08T07:16:53.340Z,7.24
2022-11-08T07:22:25.548Z,7.66
2022-11-08T07:27:59.571Z,8.08
2022-11-08T07:33:31.302Z,8.53
2022-11-08T07:39:06.662Z,8.99
2022-11-08T07:44:36.118Z,9.43
2022-11-08T07:50:08.225Z,9.87
2022-11-08T07:55:40.103Z,10.23
2022-11-08T08:01:11.805Z,10.56
2022-11-08T08:06:43.519Z,10.87
2022-11-08T08:12:15.326Z,11.14
2022-11-08T08:17:47.224Z,11.36
2022-11-08T08:23:19.249Z,11.58
2022-11-08T08:28:50.492Z,11.94
2022-11-08T08:34:22.310Z,12.22
2022-11-08T08:39:54.768Z,12.35
2022-11-08T08:45:26.797Z,12.51
2022-11-08T08:50:58.652Z,12.70
2022-11-08T08:56:30.926Z,12.94
2022-11-08T09:02:02.458Z,13.05
2022-11-08T09:07:34.439Z,13.07
2022-11-08T09:18:36.164Z,13.04
2022-11-08T09:24:07.922Z,13.03
2022-11-08T09:29:39.759Z,13.06
2022-11-08T09:35:11.514Z,13.19
2022-11-08T09:46:13.423Z,13.10
2022-11-08T09:51:45.205Z,12.87
2022-11-08T09:57:16.858Z,12.63
2022-11-08T10:02:48.849Z,12.49
2022-11-08T10:08:20.377Z,12.48
2022-11-08T10:13:52.460Z,12.43
2022-11-08T10:19:24.660Z,12.50
2022-11-08T10:24:56.391Z,12.66
2022-11-08T10:30:28.105Z,12.79
2022-11-08T10:36:02.470Z,12.97
2022-11-08T10:41:32.533Z,13.07
2022-11-08T10:47:04.009Z,13.23
2022-11-08T10:52:36.142Z,13.39
2022-11-08T10:58:07.949Z,13.45
2022-11-08T11:03:40.107Z,13.45
2022-11-08T11:09:11.786Z,13.46
2022-11-08T11:14:43.735Z,13.54
2022-11-08T11:20:16.069Z,13.64
2022-11-08T11:25:48.251Z,13.61
2022-11-08T11:31:20.448Z,13.65
2022-11-08T11:36:52.321Z,13.75
2022-11-08T11:42:44.462Z,13.82
2022-11-08T11:47:56.895Z,13.90
2022-11-08T11:53:28.651Z,13.97
2022-11-08T11:59:00.665Z,13.99
2022-11-08T12:04:32.925Z,13.98
2022-11-08T12:10:04.616Z,14.03
2022-11-08T12:15:38.156Z,14.11
2022-11-08T12:21:10.010Z,14.16
2022-11-08T12:26:43.846Z,14.21
2022-11-08T12:32:15.766Z,14.23
2022-11-08T12:37:47.927Z,14.29
2022-11-08T12:43:20.128Z,14.37
2022-11-08T12:48:52.002Z,14.45
2022-11-08T12:54:23.746Z,14.53
2022-11-08T12:59:55.573Z,14.62
2022-11-08T13:05:27.774Z,14.68
2022-11-08T13:10:59.310Z,14.73
2022-11-08T13:22:05.353Z,14.84
2022-11-08T13:27:37.316Z,14.90
2022-11-08T13:33:13.761Z,14.97
2022-11-08T13:38:46.747Z,15.02
2022-11-08T14:14:24.454Z,15.04
2022-11-08T14:19:56.285Z,15.01
2022-11-08T14:25:28.156Z,14.95
2022-11-08T14:30:59.981Z,14.91
2022-11-08T14:36:31.857Z,14.88
2022-11-08T14:42:16.790Z,14.84
2022-11-08T14:53:20.763Z,14.79
2022-11-08T15:04:25.850Z,14.71
2022-11-08T15:09:57.810Z,14.66
2022-11-08T15:15:29.516Z,14.63
2022-11-08T15:21:01.504Z,14.62
2022-11-08T15:26:35.292Z,14.61
2022-11-08T15:40:01.173Z,14.13
2022-11-08T15:45:36.736Z,14.13
2022-11-08T15:56:40.366Z,13.97
2022-11-08T16:02:12.055Z,13.83
2022-11-08T16:10:07.449Z,13.30
2022-11-08T16:26:48.931Z,13.06
2022-11-08T16:32:20.584Z,12.91
2022-11-08T16:37:52.581Z,12.75
2022-11-08T16:43:24.454Z,12.57
2022-11-08T16:48:56.013Z,12.38
2022-11-08T16:54:28.120Z,12.21
2022-11-08T17:05:31.811Z,11.86
2022-11-08T17:11:03.528Z,11.70
2022-11-08T17:16:35.461Z,11.55
2022-11-08T17:22:07.096Z,11.40
2022-11-08T17:33:10.459Z,11.13
2022-11-08T17:38:42.187Z,11.00
2022-11-08T17:44:14.073Z,10.89
2022-11-08T17:49:45.756Z,10.81
2022-11-08T17:55:17.579Z,10.76
2022-11-08T18:00:49.702Z,10.73
2022-11-08T18:06:21.005Z,10.68
2022-11-08T18:11:52.605Z,10.62
2022-11-08T18:17:24.266Z,10.56
2022-11-08T18:22:57.943Z,10.51
2022-11-08T18:28:32.355Z,10.46
2022-11-08T18:39:37.833Z,10.40
2022-11-08T18:50:41.525Z,10.40
2022-11-08T18:56:13.242Z,10.43
2022-11-08T19:01:45.067Z,10.45
2022-11-08T19:07:18.932Z,10.46
2022-11-08T19:12:50.476Z,10.46
2022-11-08T19:18:24.818Z,10.44
2022-11-08T19:23:56.259Z,10.42
2022-11-08T19:29:27.887Z,10.39
2022-11-08T19:34:59.425Z,10.36
2022-11-08T19:40:32.391Z,10.33
2022-11-08T19:46:03.212Z,10.28
2022-11-08T19:51:35.089Z,10.23
2022-11-08T19:57:06.822Z,10.17
2022-11-08T20:02:38.190Z,10.12
2022-11-08T20:08:10.028Z,10.08
2022-11-08T20:13:42.121Z,10.04
2022-11-08T20:19:13.703Z,10.02
2022-11-08T20:24:45.791Z,10.00
2022-11-08T20:30:18.155Z,9.98
2022-11-08T20:32:41.665Z,9.53
2022-11-08T20:38:13.357Z,9.70
2022-11-08T20:43:45.357Z,9.75
2022-11-08T20:49:17.087Z,9.75
2022-11-08T20:54:49.106Z,9.73
2022-11-08T21:00:37.991Z,9.70
2022-11-08T21:05:53.279Z,9.66
2022-11-08T21:11:24.887Z,9.57
2022-11-08T21:22:26.387Z,9.36
2022-11-08T21:33:30.853Z,9.10
2022-11-08T21:44:34.810Z,8.83
2022-11-08T21:50:06.799Z,8.71
2022-11-08T21:55:39.100Z,8.58
2022-11-08T22:01:11.269Z,8.47
2022-11-08T22:06:47.670Z,8.38
2022-11-08T22:12:16.620Z,8.29
2022-11-08T22:23:18.531Z,8.14
2022-11-08T22:34:24.260Z,8.00
2022-11-08T22:39:56.461Z,7.94
2022-11-08T22:47:49.373Z,7.33
2022-11-08T22:53:21.389Z,7.49
2022-11-08T22:58:53.096Z,7.54
2022-11-08T23:09:54.506Z,7.51
2022-11-08T23:15:26.600Z,7.47
2022-11-08T23:20:58.499Z,7.42
2022-11-08T23:26:32.568Z,7.38
2022-11-08T23:37:33.773Z,7.30
2022-11-08T23:48:38.519Z,7.23
2022-11-08T23:54:10.757Z,7.21
2022-11-08T23:59:42.415Z,7.19
